createdAt,value
2022-11-17T00:00:49.566Z,99055.50
2022-11-17T00:01:51.736Z,99056.34
2022-11-17T00:02:54.239Z,99053.84
2022-11-17T00:03:56.513Z,99051.34
2022-11-17T00:04:58.696Z,99053.03
2022-11-17T00:06:07.418Z,99050.28
2022-11-17T00:07:09.695Z,99051.34
2022-11-17T00:08:12.202Z,99053.53
2022-11-17T00:09:17.653Z,99053.53
2022-11-17T00:10:19.985Z,99049.97
2022-11-17T00:11:22.235Z,99058.69
2022-11-17T00:12:43.101Z,99058.97
2022-11-17T00:14:03.805Z,99061.13
2022-11-17T00:15:06.349Z,99055.09
2022-11-17T00:16:12.952Z,99057.56
2022-11-17T00:17:15.140Z,99055.56
2022-11-17T00:18:35.750Z,99052.84
2022-11-17T00:19:57.203Z,99052.28
2022-11-17T00:21:19.500Z,99049.53
2022-11-17T00:22:22.030Z,99054.44
2022-11-17T00:23:24.477Z,99050.88
2022-11-17T00:24:26.703Z,99050.88
2022-11-17T00:25:28.934Z,99059.09
2022-11-17T00:26:56.523Z,99052.78
2022-11-17T00:27:58.721Z,99044.81
2022-11-17T00:29:02.911Z,99048.63
2022-11-17T00:30:07.862Z,99041.50
2022-11-17T00:31:43.052Z,99043.16
2022-11-17T00:33:20.566Z,99047.25
2022-11-17T00:34:23.719Z,99053.78
2022-11-17T00:35:26.004Z,99045.56
2022-11-17T00:36:28.192Z,99051.31
2022-11-17T00:37:35.623Z,99056.78
2022-11-17T00:38:40.897Z,99049.09
2022-11-17T00:39:43.272Z,99047.69
2022-11-17T00:40:45.705Z,99046.63
2022-11-17T00:41:48.065Z,99054.81
2022-11-17T00:42:50.256Z,99050.69
2022-11-17T00:43:52.458Z,99045.22
2022-11-17T00:44:54.685Z,99041.63
2022-11-17T00:45:56.912Z,99047.94
2022-11-17T00:46:59.116Z,99038.59
2022-11-17T00:48:01.273Z,99044.63
2022-11-17T00:49:07.681Z,99042.41
2022-11-17T00:50:12.927Z,99048.16
2022-11-17T00:51:15.079Z,99042.09
2022-11-17T00:52:17.296Z,99044.56
2022-11-17T00:53:19.511Z,99045.06
2022-11-17T00:54:22.816Z,99033.88
2022-11-17T00:55:27.676Z,99036.88
2022-11-17T00:56:30.145Z,99033.28
2022-11-17T00:57:32.405Z,99030.81
2022-11-17T00:58:36.611Z,99032.75
2022-11-17T00:59:38.792Z,99039.03
2022-11-17T01:00:40.973Z,99042.59
2022-11-17T01:01:46.307Z,99036.81
2022-11-17T01:02:51.716Z,99039.53
2022-11-17T01:04:05.901Z,99039.53
2022-11-17T01:05:11.169Z,99037.63
2022-11-17T01:06:16.190Z,99038.13
2022-11-17T01:07:21.479Z,99041.94
2022-11-17T01:08:23.733Z,99042.78
2022-11-17T01:09:28.993Z,99034.59
2022-11-17T01:10:31.544Z,99037.31
2022-11-17T01:11:36.519Z,99037.56
2022-11-17T01:12:38.716Z,99027.72
2022-11-17T01:13:42.418Z,99030.44
2022-11-17T01:14:44.737Z,99026.06
2022-11-17T01:15:46.964Z,99028.53
2022-11-17T01:16:49.225Z,99032.34
2022-11-17T01:17:54.386Z,99027.72
2022-11-17T01:19:00.356Z,99029.88
2022-11-17T01:20:06.228Z,99029.28
2022-11-17T01:21:11.702Z,99025.47
2022-11-17T01:22:13.968Z,99021.31
2022-11-17T01:23:16.222Z,99027.66
2022-11-17T01:24:19.000Z,99026.53
2022-11-17T01:25:21.533Z,99028.72
2022-11-17T01:26:27.412Z,99034.19
2022-11-17T01:27:29.688Z,99031.72
2022-11-17T01:28:32.023Z,99031.72
2022-11-17T01:29:34.217Z,99032.78
2022-11-17T01:30:36.431Z,99029.22
2022-11-17T01:31:43.384Z,99024.84
2022-11-17T01:32:45.677Z,99019.59
2022-11-17T01:33:48.956Z,99019.38
2022-11-17T01:34:51.199Z,99022.09
2022-11-17T01:35:53.437Z,99017.72
2022-11-17T01:37:14.150Z,99012.25
2022-11-17T01:38:16.397Z,99015.22
2022-11-17T01:39:18.829Z,99008.66
2022-11-17T01:40:21.068Z,99009.50
2022-11-17T01:41:26.590Z,99016.03
2022-11-17T01:42:28.871Z,99016.03
2022-11-17T01:43:43.388Z,99014.13
2022-11-17T01:45:16.663Z,99018.78
2022-11-17T01:46:38.151Z,99012.25
2022-11-17T01:47:48.830Z,99021.53
2022-11-17T01:48:55.218Z,99015.22
2022-11-17T01:50:29.427Z,99013.56
2022-11-17T01:51:34.981Z,99019.03
2022-11-17T01:52:39.259Z,99019.03
2022-11-17T01:53:43.698Z,99015.72
2022-11-17T01:54:48.715Z,99009.19
2022-11-17T01:55:56.281Z,99015.97
2022-11-17T01:57:02.988Z,99018.72
2022-11-17T01:58:21.308Z,99016.81
2022-11-17T01:59:29.717Z,99011.34
2022-11-17T02:00:32.121Z,99017.63
2022-11-17T02:01:34.516Z,99011.34
2022-11-17T02:02:40.091Z,99003.97
2022-11-17T02:03:44.935Z,99011.34
2022-11-17T02:05:00.174Z,99013.25
2022-11-17T02:06:08.430Z,99008.03
2022-11-17T02:07:25.387Z,99006.97
2022-11-17T02:08:30.536Z,99009.69
2022-11-17T02:09:35.042Z,99014.31
2022-11-17T02:10:37.854Z,99022.28
2022-11-17T02:11:40.100Z,99014.09
2022-11-17T02:12:43.817Z,99007.78
2022-11-17T02:13:46.471Z,99005.03
2022-11-17T02:14:50.351Z,99001.50
2022-11-17T02:15:52.530Z,98989.72
2022-11-17T02:17:01.041Z,98994.09
2022-11-17T02:18:07.151Z,98985.91
2022-11-17T02:19:12.074Z,98984.00
2022-11-17T02:20:50.055Z,98991.13
2022-11-17T02:22:10.859Z,98992.22
2022-11-17T02:23:41.294Z,98994.09
2022-11-17T02:24:58.482Z,98995.44
2022-11-17T02:26:34.755Z,98995.44
2022-11-17T02:28:06.248Z,98993.78
2022-11-17T02:29:21.288Z,98998.44
2022-11-17T02:30:24.218Z,98991.81
2022-11-17T02:31:46.256Z,98987.69
2022-11-17T02:33:03.490Z,98982.47
2022-11-17T02:34:12.206Z,98982.47
2022-11-17T02:35:44.253Z,98985.69
2022-11-17T02:36:46.455Z,98984.63
2022-11-17T02:38:15.504Z,98990.09
2022-11-17T02:39:27.112Z,98987.34
2022-11-17T02:40:32.309Z,98981.28
2022-11-17T02:42:10.116Z,98985.69
2022-11-17T02:43:38.958Z,98989.28
2022-11-17T02:44:55.459Z,98993.06
2022-11-17T02:46:07.188Z,98988.44
2022-11-17T02:47:20.589Z,98991.16
2022-11-17T02:48:28.305Z,98994.97
2022-11-17T02:49:37.789Z,98994.16
2022-11-17T02:50:44.713Z,98988.69
2022-11-17T02:52:03.235Z,99003.16
2022-11-17T02:53:06.734Z,98986.75
2022-11-17T02:54:10.135Z,98991.16
2022-11-17T02:55:12.493Z,98996.63
2022-11-17T02:56:14.750Z,98993.88
2022-11-17T02:57:34.230Z,98994.75
2022-11-17T02:58:36.506Z,98988.44
2022-11-17T02:59:46.311Z,98986.53
2022-11-17T03:01:18.989Z,98990.09
2022-11-17T03:02:24.221Z,98988.16
2022-11-17T03:04:09.324Z,98987.34
2022-11-17T03:05:30.337Z,98986.53
2022-11-17T03:07:02.734Z,98979.97
2022-11-17T03:08:17.195Z,98973.09
2022-11-17T03:09:30.230Z,98973.09
2022-11-17T03:10:41.625Z,98979.41
2022-11-17T03:12:13.813Z,98976.94
2022-11-17T03:13:44.898Z,98969.28
2022-11-17T03:14:49.935Z,98966.00
2022-11-17T03:16:06.143Z,98965.16
2022-11-17T03:17:19.431Z,98961.88
2022-11-17T03:18:32.749Z,98960.75
2022-11-17T03:19:44.757Z,98970.38
2022-11-17T03:20:58.212Z,98964.06
2022-11-17T03:22:10.889Z,98963.25
2022-11-17T03:23:25.573Z,98967.06
2022-11-17T03:24:31.365Z,98960.75
2022-11-17T03:25:37.713Z,98962.09
2022-11-17T03:26:47.580Z,98965.41
2022-11-17T03:28:01.645Z,98971.94
2022-11-17T03:29:09.117Z,98967.81
2022-11-17T03:30:12.925Z,98965.94
2022-11-17T03:31:18.514Z,98966.19
2022-11-17T03:32:23.650Z,98975.19
2022-11-17T03:33:28.273Z,98968.91
2022-11-17T03:34:44.790Z,98970.00
2022-11-17T03:35:54.606Z,98962.59
2022-11-17T03:37:03.671Z,98964.28
2022-11-17T03:38:12.572Z,98963.19
2022-11-17T03:39:26.061Z,98958.53
2022-11-17T03:40:32.515Z,98963.19
2022-11-17T03:41:39.344Z,98961.28
2022-11-17T03:42:46.471Z,98952.75
2022-11-17T03:43:51.955Z,98955.25
2022-11-17T03:45:00.899Z,98957.72
2022-11-17T03:46:11.129Z,98962.34
2022-11-17T03:47:15.386Z,98974.13
2022-11-17T03:48:28.335Z,98964.28
2022-11-17T03:49:40.822Z,98974.38
2022-11-17T03:51:08.140Z,98970.56
2022-11-17T03:52:13.431Z,98970.81
2022-11-17T03:53:15.885Z,98966.19
2022-11-17T03:54:18.460Z,98968.66
2022-11-17T03:55:22.906Z,98965.94
2022-11-17T03:57:01.932Z,98963.19
2022-11-17T03:58:09.353Z,98963.19
2022-11-17T03:59:17.871Z,98971.13
2022-11-17T04:00:23.180Z,98958.28
2022-11-17T04:01:29.621Z,98955.56
2022-11-17T04:02:31.972Z,98962.69
2022-11-17T04:03:35.372Z,98947.34
2022-11-17T04:04:59.174Z,98955.88
2022-11-17T04:06:01.801Z,98957.22
2022-11-17T04:07:04.043Z,98958.81
2022-11-17T04:08:06.408Z,98962.59
2022-11-17T04:09:08.733Z,98957.72
2022-11-17T04:10:12.620Z,98958.22
2022-11-17T04:11:33.447Z,98953.00
2022-11-17T04:12:54.274Z,98960.94
2022-11-17T04:14:15.344Z,98964.19
2022-11-17T04:15:35.923Z,98956.81
2022-11-17T04:16:38.095Z,98953.25
2022-11-17T04:17:40.291Z,98954.91
2022-11-17T04:18:42.462Z,98948.59
2022-11-17T04:19:44.643Z,98944.00
2022-11-17T04:20:51.398Z,98943.41
2022-11-17T04:21:53.594Z,98953.25
2022-11-17T04:23:08.165Z,98951.03
2022-11-17T04:24:10.362Z,98943.66
2022-11-17T04:25:35.210Z,98947.47
2022-11-17T04:26:59.267Z,98945.00
2022-11-17T04:28:19.847Z,98945.00
2022-11-17T04:29:22.018Z,98939.78
2022-11-17T04:30:27.193Z,98943.31
2022-11-17T04:31:31.492Z,98940.28
2022-11-17T04:32:33.663Z,98949.56
2022-11-17T04:33:37.718Z,98946.00
2022-11-17T04:34:42.630Z,98949.78
2022-11-17T04:35:50.417Z,98953.38
2022-11-17T04:36:52.712Z,98942.44
2022-11-17T04:37:54.944Z,98938.63
2022-11-17T04:38:59.817Z,98943.25
2022-11-17T04:40:02.273Z,98948.72
2022-11-17T04:41:30.760Z,98935.06
2022-11-17T04:42:32.959Z,98932.31
2022-11-17T04:43:35.190Z,98937.22
2022-11-17T04:44:37.553Z,98938.31
2022-11-17T04:45:39.754Z,98932.84
2022-11-17T04:46:44.485Z,98941.84
2022-11-17T04:47:46.665Z,98938.31
2022-11-17T04:48:49.363Z,98941.59
2022-11-17T04:49:53.828Z,98932.59
2022-11-17T04:50:57.007Z,98938.88
2022-11-17T04:51:59.255Z,98932.84
2022-11-17T04:53:02.332Z,98931.78
2022-11-17T04:54:06.836Z,98926.31
2022-11-17T04:55:09.444Z,98930.09
2022-11-17T04:56:14.823Z,98933.09
2022-11-17T04:57:17.082Z,98921.31
2022-11-17T04:58:19.276Z,98934.72
2022-11-17T04:59:24.197Z,98922.97
2022-11-17T05:00:26.397Z,98922.66
2022-11-17T05:01:29.061Z,98930.84
2022-11-17T05:02:31.294Z,98921.84
2022-11-17T05:03:34.513Z,98923.50
2022-11-17T05:04:55.362Z,98915.31
2022-11-17T05:05:57.580Z,98922.66
2022-11-17T05:06:59.757Z,98920.19
2022-11-17T05:08:05.364Z,98913.06
2022-11-17T05:09:13.313Z,98925.09
2022-11-17T05:10:16.623Z,98917.69
2022-11-17T05:11:37.180Z,98918.44
2022-11-17T05:13:00.340Z,98922.84
2022-11-17T05:14:03.514Z,98917.88
2022-11-17T05:15:06.227Z,98921.44
2022-11-17T05:16:30.355Z,98918.97
2022-11-17T05:17:32.570Z,98920.03
2022-11-17T05:18:34.762Z,98912.41
2022-11-17T05:19:45.395Z,98910.75
2022-11-17T05:20:49.883Z,98907.44
2022-11-17T05:21:52.135Z,98911.28
2022-11-17T05:23:13.037Z,98914.22
2022-11-17T05:24:19.000Z,98901.41
2022-11-17T05:25:22.375Z,98899.75
2022-11-17T05:26:29.754Z,98894.56
2022-11-17T05:27:34.000Z,98892.09
2022-11-17T05:28:36.241Z,98900.03
2022-11-17T05:29:40.741Z,98905.47
2022-11-17T05:30:42.943Z,98897.81
2022-11-17T05:31:45.493Z,98902.75
2022-11-17T05:32:47.650Z,98903.00
2022-11-17T05:33:50.485Z,98910.94
2022-11-17T05:34:52.704Z,98912.84
2022-11-17T05:35:54.880Z,98898.34
2022-11-17T05:36:57.146Z,98903.56
2022-11-17T05:37:59.398Z,98902.50
2022-11-17T05:39:02.961Z,98898.09
2022-11-17T05:40:08.798Z,98899.75
2022-11-17T05:41:11.096Z,98900.56
2022-11-17T05:42:13.355Z,98893.22
2022-11-17T05:43:15.599Z,98901.41
2022-11-17T05:44:17.948Z,98896.78
2022-11-17T05:45:20.181Z,98894.88
2022-11-17T05:46:23.667Z,98892.16
2022-11-17T05:47:25.919Z,98890.50
2022-11-17T05:48:28.290Z,98892.38
2022-11-17T05:49:31.064Z,98890.25
2022-11-17T05:50:33.276Z,98894.03
2022-11-17T05:51:38.447Z,98886.09
2022-11-17T05:52:40.762Z,98892.63
2022-11-17T05:53:43.463Z,98898.94
2022-11-17T05:54:46.007Z,98888.03
2022-11-17T05:55:51.644Z,98895.38
2022-11-17T05:57:20.299Z,98897.84
2022-11-17T05:58:30.073Z,98893.22
2022-11-17T05:59:43.663Z,98903.09
2022-11-17T06:00:46.113Z,98909.34
2022-11-17T06:02:15.596Z,98899.25
2022-11-17T06:03:33.998Z,98899.50
2022-11-17T06:04:36.989Z,98903.09
2022-11-17T06:05:39.232Z,98904.16
2022-11-17T06:06:41.554Z,98903.31
2022-11-17T06:07:43.844Z,98900.56
2022-11-17T06:08:48.422Z,98906.03
2022-11-17T06:09:51.985Z,98904.16
2022-11-17T06:10:54.148Z,98910.44
2022-11-17T06:11:59.748Z,98914.00
2022-11-17T06:13:06.515Z,98905.22
2022-11-17T06:14:08.936Z,98906.63
2022-11-17T06:15:13.762Z,98907.69
2022-11-17T06:16:20.142Z,98911.28
2022-11-17T06:17:51.417Z,98904.72
2022-11-17T06:19:01.932Z,98904.97
2022-11-17T06:20:13.945Z,98910.44
2022-11-17T06:21:17.541Z,98896.50
2022-11-17T06:22:19.772Z,98905.56
2022-11-17T06:23:26.861Z,98903.63
2022-11-17T06:24:29.292Z,98893.56
2022-11-17T06:25:34.998Z,98897.09
2022-11-17T06:26:40.590Z,98897.63
2022-11-17T06:27:42.982Z,98896.50
2022-11-17T06:28:49.580Z,98900.91
2022-11-17T06:29:52.227Z,98895.44
2022-11-17T06:30:55.457Z,98895.44
2022-11-17T06:31:58.383Z,98896.28
2022-11-17T06:33:01.185Z,98898.75
2022-11-17T06:34:04.878Z,98896.03
2022-11-17T06:35:09.410Z,98900.66
2022-11-17T06:36:11.831Z,98899.03
2022-11-17T06:37:14.072Z,98897.09
2022-11-17T06:38:16.296Z,98904.22
2022-11-17T06:39:18.496Z,98896.03
2022-11-17T06:40:20.669Z,98896.03
2022-11-17T06:41:22.976Z,98899.03
2022-11-17T06:42:45.178Z,98901.75
2022-11-17T06:43:47.380Z,98896.28
2022-11-17T06:44:49.565Z,98901.97
2022-11-17T06:45:51.797Z,98900.09
2022-11-17T06:46:53.967Z,98891.63
2022-11-17T06:47:56.202Z,98890.81
2022-11-17T06:48:58.430Z,98887.00
2022-11-17T06:50:03.174Z,98886.44
2022-11-17T06:51:05.918Z,98874.66
2022-11-17T06:52:08.150Z,98870.88
2022-11-17T06:53:14.899Z,98867.88
2022-11-17T06:54:17.429Z,98874.75
2022-11-17T06:55:22.759Z,98879.38
2022-11-17T06:56:24.953Z,98874.75
2022-11-17T06:57:27.160Z,98878.31
2022-11-17T06:58:30.096Z,98873.41
2022-11-17T06:59:32.275Z,98879.13
2022-11-17T07:00:38.076Z,98878.88
2022-11-17T07:01:40.355Z,98878.88
2022-11-17T07:02:42.861Z,98879.72
2022-11-17T07:03:45.056Z,98879.72
2022-11-17T07:04:47.238Z,98877.00
2022-11-17T07:05:50.872Z,98872.06
2022-11-17T07:06:53.052Z,98872.06
2022-11-17T07:08:03.399Z,98872.06
2022-11-17T07:09:05.886Z,98877.31
2022-11-17T07:10:08.766Z,98874.59
2022-11-17T07:11:14.206Z,98874.31
2022-11-17T07:12:16.496Z,98877.06
2022-11-17T07:13:25.140Z,98885.00
2022-11-17T07:14:27.353Z,98884.19
2022-11-17T07:15:37.357Z,98875.41
2022-11-17T07:16:42.496Z,98874.31
2022-11-17T07:17:45.034Z,98884.41
2022-11-17T07:18:47.265Z,98876.78
2022-11-17T07:19:49.475Z,98876.78
2022-11-17T07:20:51.643Z,98885.00
2022-11-17T07:21:56.470Z,98877.63
2022-11-17T07:23:00.169Z,98886.91
2022-11-17T07:24:03.558Z,98875.66
2022-11-17T07:25:09.019Z,98877.06
2022-11-17T07:26:11.740Z,98870.53
2022-11-17T07:27:14.100Z,98878.47
2022-11-17T07:28:16.296Z,98863.41
2022-11-17T07:29:20.767Z,98879.28
2022-11-17T07:30:23.079Z,98860.97
2022-11-17T07:31:25.360Z,98869.41
2022-11-17T07:32:31.538Z,98862.63
2022-11-17T07:33:34.693Z,98867.28
2022-11-17T07:34:36.950Z,98868.66
2022-11-17T07:35:39.148Z,98854.16
2022-11-17T07:36:41.487Z,98859.06
2022-11-17T07:37:43.734Z,98868.66
2022-11-17T07:38:48.036Z,98866.50
2022-11-17T07:39:50.296Z,98862.69
2022-11-17T07:40:52.562Z,98864.59
2022-11-17T07:41:54.820Z,98866.00
2022-11-17T07:42:57.143Z,98868.47
2022-11-17T07:44:00.713Z,98869.56
2022-11-17T07:45:06.179Z,98866.81
2022-11-17T07:46:13.848Z,98870.41
2022-11-17T07:47:16.059Z,98866.56
2022-11-17T07:48:18.304Z,98861.94
2022-11-17T07:49:20.489Z,98865.75
2022-11-17T07:50:24.138Z,98865.75
2022-11-17T07:51:26.476Z,98870.13
2022-11-17T07:52:30.947Z,98864.69
2022-11-17T07:53:35.140Z,98860.59
2022-11-17T07:54:37.436Z,98864.16
2022-11-17T07:55:39.805Z,98863.66
2022-11-17T07:56:42.038Z,98872.94
2022-11-17T07:57:44.381Z,98877.31
2022-11-17T07:58:46.662Z,98867.22
2022-11-17T07:59:48.922Z,98874.88
2022-11-17T08:00:51.174Z,98863.69
2022-11-17T08:01:53.366Z,98868.09
2022-11-17T08:02:55.910Z,98869.16
2022-11-17T08:03:58.553Z,98866.44
2022-11-17T08:05:00.874Z,98860.47
2022-11-17T08:06:07.345Z,98864.88
2022-11-17T08:07:09.568Z,98866.50
2022-11-17T08:08:13.629Z,98873.88
2022-11-17T08:09:16.298Z,98865.16
2022-11-17T08:10:18.595Z,98869.56
2022-11-17T08:11:21.254Z,98867.06
2022-11-17T08:12:23.763Z,98867.34
2022-11-17T08:13:26.042Z,98858.28
2022-11-17T08:14:29.890Z,98861.59
2022-11-17T08:15:32.171Z,98855.06
2022-11-17T08:16:34.451Z,98863.00
2022-11-17T08:17:37.076Z,98862.75
2022-11-17T08:18:39.942Z,98871.47
2022-11-17T08:19:42.506Z,98862.75
2022-11-17T08:20:44.682Z,98862.19
2022-11-17T08:21:46.956Z,98852.41
2022-11-17T08:22:52.127Z,98859.53
2022-11-17T08:23:55.331Z,98854.28
2022-11-17T08:24:57.927Z,98854.34
2022-11-17T08:26:02.217Z,98852.72
2022-11-17T08:27:04.574Z,98848.66
2022-11-17T08:28:06.919Z,98855.44
2022-11-17T08:29:09.107Z,98855.44
2022-11-17T08:30:11.619Z,98852.47
2022-11-17T08:31:14.393Z,98858.47
2022-11-17T08:32:16.668Z,98858.75
2022-11-17T08:33:18.900Z,98856.84
2022-11-17T08:34:21.135Z,98859.31
2022-11-17T08:35:25.453Z,98864.53
2022-11-17T08:36:27.602Z,98856.88
2022-11-17T08:37:30.777Z,98858.53
2022-11-17T08:38:33.741Z,98849.25
2022-11-17T08:39:36.166Z,98853.91
2022-11-17T08:40:38.638Z,98849.00
2022-11-17T08:41:40.856Z,98849.25
2022-11-17T08:42:43.155Z,98848.72
2022-11-17T08:43:46.316Z,98844.09
2022-11-17T08:44:48.527Z,98841.09
2022-11-17T08:45:51.363Z,98853.13
2022-11-17T08:46:53.553Z,98844.09
2022-11-17T08:47:56.868Z,98845.75
2022-11-17T08:49:00.893Z,98843.59
2022-11-17T08:50:04.824Z,98844.44
2022-11-17T08:51:09.659Z,98862.22
2022-11-17T08:52:11.904Z,98859.72
2022-11-17T08:53:19.525Z,98860.31
2022-11-17T08:54:21.838Z,98856.50
2022-11-17T08:55:26.410Z,98848.84
2022-11-17T08:56:29.177Z,98851.03
2022-11-17T08:57:32.879Z,98858.97
2022-11-17T08:58:45.674Z,98850.50
2022-11-17T08:59:50.785Z,98859.28
2022-11-17T09:00:53.054Z,98854.63
2022-11-17T09:01:55.370Z,98857.09
2022-11-17T09:02:57.624Z,98865.03
2022-11-17T09:03:59.901Z,98850.28
2022-11-17T09:05:02.099Z,98859.56
2022-11-17T09:06:05.765Z,98860.97
2022-11-17T09:07:08.061Z,98866.44
2022-11-17T09:08:43.553Z,98867.28
2022-11-17T09:09:34.492Z,98868.69
2022-11-17T09:10:37.992Z,98877.44
2022-11-17T09:11:40.177Z,98873.63
2022-11-17T09:12:42.707Z,98879.09
2022-11-17T09:13:47.741Z,98875.28
2022-11-17T09:14:49.933Z,98879.69
2022-11-17T09:15:54.737Z,98882.97
2022-11-17T09:16:57.107Z,98880.50
2022-11-17T09:17:59.749Z,98879.41
2022-11-17T09:19:02.830Z,98876.41
2022-11-17T09:20:05.785Z,98871.78
2022-11-17T09:21:13.937Z,98867.94
2022-11-17T09:22:16.168Z,98879.47
2022-11-17T09:23:18.362Z,98873.19
2022-11-17T09:24:20.576Z,98864.97
2022-11-17T09:25:22.768Z,98863.63
2022-11-17T09:26:25.176Z,98875.94
2022-11-17T09:27:27.569Z,98873.47
2022-11-17T09:28:29.846Z,98867.19
2022-11-17T09:29:32.073Z,98866.09
2022-11-17T09:30:34.288Z,98868.56
2022-11-17T09:31:36.580Z,98870.22
2022-11-17T09:32:38.863Z,98868.31
2022-11-17T09:33:41.497Z,98869.69
2022-11-17T09:34:43.993Z,98870.50
2022-11-17T09:35:46.615Z,98861.50
2022-11-17T09:36:49.559Z,98860.41
2022-11-17T09:37:51.764Z,98864.53
2022-11-17T09:38:54.067Z,98868.34
2022-11-17T09:39:56.307Z,98866.44
2022-11-17T09:40:59.258Z,98861.28
2022-11-17T09:42:01.661Z,98864.00
2022-11-17T09:43:28.753Z,98863.19
2022-11-17T09:44:39.883Z,98864.00
2022-11-17T09:45:46.728Z,98862.13
2022-11-17T09:47:19.140Z,98869.78
2022-11-17T09:48:41.105Z,98864.63
2022-11-17T09:50:02.948Z,98864.63
2022-11-17T09:51:11.481Z,98867.91
2022-11-17T09:52:21.233Z,98864.91
2022-11-17T09:54:00.100Z,98865.50
2022-11-17T09:55:11.981Z,98858.63
2022-11-17T09:56:14.856Z,98849.88
2022-11-17T09:57:27.011Z,98852.38
2022-11-17T09:59:06.095Z,98865.22
2022-11-17T10:00:14.861Z,98865.22
2022-11-17T10:01:20.139Z,98851.28
2022-11-17T10:02:22.396Z,98852.13
2022-11-17T10:03:32.466Z,98847.47
2022-11-17T10:04:36.059Z,98855.41
2022-11-17T10:05:38.355Z,98846.09
2022-11-17T10:06:44.469Z,98851.31
2022-11-17T10:07:51.437Z,98853.81
2022-11-17T10:09:07.361Z,98846.69
2022-11-17T10:10:17.484Z,98836.28
2022-11-17T10:11:31.915Z,98847.00
2022-11-17T10:12:41.881Z,98842.34
2022-11-17T10:13:44.217Z,98864.81
2022-11-17T10:14:48.945Z,98848.88
2022-11-17T10:16:03.365Z,98844.25
2022-11-17T10:17:05.531Z,98836.03
2022-11-17T10:18:15.807Z,98848.63
2022-11-17T10:19:31.626Z,98837.66
2022-11-17T10:20:33.857Z,98832.19
2022-11-17T10:21:37.966Z,98840.97
2022-11-17T10:22:41.296Z,98836.13
2022-11-17T10:23:50.890Z,98835.28
2022-11-17T10:24:58.750Z,98828.44
2022-11-17T10:26:01.134Z,98839.41
2022-11-17T10:27:19.213Z,98836.38
2022-11-17T10:28:30.646Z,98844.09
2022-11-17T10:29:33.356Z,98839.44
2022-11-17T10:30:35.665Z,98832.88
2022-11-17T10:31:46.076Z,98827.94
2022-11-17T10:32:50.679Z,98824.13
2022-11-17T10:33:53.201Z,98821.38
2022-11-17T10:34:55.511Z,98813.75
2022-11-17T10:35:59.127Z,98798.97
2022-11-17T10:37:13.011Z,98801.44
2022-11-17T10:38:21.967Z,98812.13
2022-11-17T10:39:40.279Z,98794.88
2022-11-17T10:40:42.709Z,98796.50
2022-11-17T10:41:48.521Z,98799.25
2022-11-17T10:43:00.392Z,98801.97
2022-11-17T10:44:05.014Z,98800.09
2022-11-17T10:45:17.125Z,98801.47
2022-11-17T10:46:19.374Z,98797.88
2022-11-17T10:47:30.791Z,98788.88
2022-11-17T10:48:40.896Z,98798.72
2022-11-17T10:49:43.299Z,98804.22
2022-11-17T10:51:02.309Z,98805.59
2022-11-17T10:52:13.857Z,98791.06
2022-11-17T10:53:26.305Z,98794.06
2022-11-17T10:54:31.062Z,98788.31
2022-11-17T10:55:34.213Z,98795.44
2022-11-17T10:56:45.668Z,98795.19
2022-11-17T10:57:53.008Z,98792.72
2022-11-17T10:58:59.717Z,98794.38
2022-11-17T11:00:02.029Z,98787.81
2022-11-17T11:01:04.678Z,98797.09
2022-11-17T11:02:27.957Z,98794.38
2022-11-17T11:03:35.172Z,98786.97
2022-11-17T11:04:39.697Z,98795.19
2022-11-17T11:05:55.002Z,98791.34
2022-11-17T11:07:10.968Z,98793.00
2022-11-17T11:08:21.320Z,98798.50
2022-11-17T11:09:23.890Z,98796.28
2022-11-17T11:10:32.587Z,98794.38
2022-11-17T11:12:06.227Z,98796.84
2022-11-17T11:13:33.056Z,98785.34
2022-11-17T11:14:42.133Z,98798.19
2022-11-17T11:15:46.045Z,98791.91
2022-11-17T11:16:50.700Z,98791.06
2022-11-17T11:17:52.888Z,98799.03
2022-11-17T11:18:56.332Z,98786.97
2022-11-17T11:19:59.383Z,98796.53
2022-11-17T11:21:28.080Z,98797.91
2022-11-17T11:22:57.845Z,98797.66
2022-11-17T11:24:24.841Z,98798.22
2022-11-17T11:26:09.870Z,98799.88
2022-11-17T11:27:33.840Z,98793.00
2022-11-17T11:29:02.215Z,98785.88
2022-11-17T11:30:13.678Z,98776.56
2022-11-17T11:31:32.728Z,98790.28
2022-11-17T11:33:12.835Z,98782.06
2022-11-17T11:34:23.455Z,98783.97
2022-11-17T11:35:37.932Z,98789.69
2022-11-17T11:36:44.889Z,98776.84
2022-11-17T11:38:01.585Z,98780.41
2022-11-17T11:39:23.028Z,98772.47
2022-11-17T11:40:40.101Z,98772.47
2022-11-17T11:41:58.227Z,98781.47
2022-11-17T11:43:23.268Z,98765.31
2022-11-17T11:44:57.136Z,98762.88
2022-11-17T11:46:17.094Z,98766.72
2022-11-17T11:47:43.135Z,98750.84
2022-11-17T11:48:48.841Z,98752.75
2022-11-17T11:49:55.877Z,98748.34
2022-11-17T11:50:59.606Z,98747.84
2022-11-17T11:52:06.921Z,98753.31
2022-11-17T11:53:46.834Z,98751.38
2022-11-17T11:54:57.007Z,98748.66
2022-11-17T11:56:07.484Z,98760.97
2022-11-17T11:57:15.761Z,98746.19
2022-11-17T11:58:26.314Z,98741.28
2022-11-17T11:59:41.858Z,98747.31
2022-11-17T12:00:45.230Z,98741.84
2022-11-17T12:02:05.466Z,98737.19
2022-11-17T12:03:26.628Z,98739.09
2022-11-17T12:04:48.084Z,98739.09
2022-11-17T12:06:26.294Z,98752.28
2022-11-17T12:07:39.821Z,98761.84
2022-11-17T12:08:51.327Z,98750.91
2022-11-17T12:10:15.032Z,98759.13
2022-11-17T12:11:36.823Z,98747.31
2022-11-17T12:12:40.427Z,98730.88
2022-11-17T12:13:48.411Z,98739.94
2022-11-17T12:15:12.461Z,98733.63
2022-11-17T12:16:35.421Z,98732.25
2022-11-17T12:17:54.208Z,98740.19
2022-11-17T12:18:56.457Z,98729.25
2022-11-17T12:20:09.373Z,98731.97
2022-11-17T12:21:20.905Z,98726.50
2022-11-17T12:22:30.223Z,98731.44
2022-11-17T12:23:58.619Z,98727.88
2022-11-17T12:25:14.717Z,98740.19
2022-11-17T12:26:29.241Z,98735.84
2022-11-17T12:27:34.455Z,98728.69
2022-11-17T12:28:38.948Z,98745.94
2022-11-17T12:29:47.430Z,98742.13
2022-11-17T12:30:52.773Z,98747.03
2022-11-17T12:32:01.881Z,98739.94
2022-11-17T12:33:06.600Z,98744.56
2022-11-17T12:34:22.752Z,98748.97
2022-11-17T12:35:33.214Z,98744.31
2022-11-17T12:36:37.015Z,98740.75
2022-11-17T12:37:39.195Z,98741.84
2022-11-17T12:38:41.705Z,98735.28
2022-11-17T12:39:59.368Z,98743.75
2022-11-17T12:41:01.612Z,98752.25
2022-11-17T12:42:05.580Z,98739.63
2022-11-17T12:43:16.731Z,98743.47
2022-11-17T12:44:37.573Z,98736.59
2022-11-17T12:46:07.698Z,98738.53
2022-11-17T12:47:20.901Z,98733.06
2022-11-17T12:48:35.469Z,98732.78
2022-11-17T12:50:03.919Z,98731.66
2022-11-17T12:51:30.017Z,98727.81
2022-11-17T12:52:57.164Z,98733.31
2022-11-17T12:54:14.358Z,98708.91
2022-11-17T12:55:25.498Z,98718.75
2022-11-17T12:56:52.757Z,98717.94
2022-11-17T12:58:10.205Z,98726.16
2022-11-17T12:59:15.824Z,98721.50
2022-11-17T13:00:22.247Z,98725.09
2022-11-17T13:02:20.362Z,98730.25
2022-11-17T13:03:31.576Z,98726.44
2022-11-17T13:04:49.905Z,98720.38
2022-11-17T13:06:33.912Z,98726.16
2022-11-17T13:07:32.138Z,98727.50
2022-11-17T13:08:34.539Z,98729.16
2022-11-17T13:09:36.900Z,98734.88
2022-11-17T13:10:39.177Z,98722.28
2022-11-17T13:11:41.400Z,98722.81
2022-11-17T13:12:43.658Z,98726.13
2022-11-17T13:13:47.388Z,98717.63
2022-11-17T13:15:04.227Z,98716.81
2022-11-17T13:16:12.440Z,98707.47
2022-11-17T13:17:15.832Z,98715.97
2022-11-17T13:18:28.403Z,98721.44
2022-11-17T13:19:41.684Z,98717.91
2022-11-17T13:20:52.361Z,98726.66